createdAt,value
2023-08-20T00:01:22.179Z,28.92
2023-08-20T00:03:48.549Z,28.94
2023-08-20T00:06:15.084Z,28.99
2023-08-20T00:08:41.545Z,28.84
2023-08-20T00:11:07.887Z,28.80
2023-08-20T00:13:34.244Z,28.78
2023-08-20T00:16:00.736Z,28.84
2023-08-20T00:18:27.104Z,28.95
2023-08-20T00:20:53.441Z,28.79
2023-08-20T00:23:19.880Z,28.87
2023-08-20T00:25:46.369Z,28.84
2023-08-20T00:28:12.638Z,28.75
2023-08-20T00:30:38.968Z,28.67
2023-08-20T00:33:05.373Z,28.51
2023-08-20T00:35:31.792Z,28.73
2023-08-20T00:37:58.134Z,28.61
2023-08-20T00:40:24.497Z,28.59
2023-08-20T00:42:50.945Z,28.61
2023-08-20T00:45:17.303Z,28.57
2023-08-20T00:47:43.701Z,28.59
2023-08-20T00:50:09.979Z,28.51
2023-08-20T00:52:36.383Z,28.52
2023-08-20T00:55:02.821Z,28.54
2023-08-20T00:57:29.145Z,28.47
2023-08-20T00:59:55.552Z,28.36
2023-08-20T01:02:21.872Z,28.40
2023-08-20T01:04:48.176Z,28.39
2023-08-20T01:07:14.535Z,28.40
2023-08-20T01:09:40.914Z,28.29
2023-08-20T01:12:07.307Z,28.35
2023-08-20T01:14:33.624Z,28.01
2023-08-20T01:17:00.171Z,28.29
2023-08-20T01:19:26.571Z,28.18
2023-08-20T01:21:52.858Z,28.02
2023-08-20T01:24:19.162Z,28.12
2023-08-20T01:26:48.305Z,28.08
2023-08-20T01:29:14.785Z,28.24
2023-08-20T01:31:41.201Z,28.25
2023-08-20T01:34:07.604Z,28.19
2023-08-20T01:36:34.131Z,27.79
2023-08-20T01:39:00.605Z,27.92
2023-08-20T01:41:27.085Z,28.08
2023-08-20T01:43:53.563Z,28.21
2023-08-20T01:46:20.076Z,28.12
2023-08-20T01:48:46.526Z,27.90
2023-08-20T01:51:13.000Z,28.00
2023-08-20T01:53:39.271Z,28.08
2023-08-20T01:56:05.700Z,28.09
2023-08-20T01:58:31.997Z,28.13
2023-08-20T02:00:58.278Z,28.10
2023-08-20T02:03:24.864Z,28.08
2023-08-20T02:05:51.177Z,28.00
2023-08-20T02:08:17.465Z,28.04
2023-08-20T02:10:43.763Z,27.76
2023-08-20T02:13:10.035Z,27.87
2023-08-20T02:15:36.481Z,27.87
2023-08-20T02:18:02.983Z,27.92
2023-08-20T02:20:29.340Z,27.73
2023-08-20T02:22:55.619Z,27.67
2023-08-20T02:25:21.883Z,27.79
2023-08-20T02:27:48.153Z,27.62
2023-08-20T02:30:14.588Z,27.73
2023-08-20T02:32:40.926Z,27.75
2023-08-20T02:35:07.300Z,27.52
2023-08-20T02:37:34.083Z,27.46
2023-08-20T02:40:00.677Z,27.37
2023-08-20T02:42:27.192Z,27.68
2023-08-20T02:44:53.663Z,27.22
2023-08-20T02:47:19.938Z,27.56
2023-08-20T02:49:46.409Z,27.36
2023-08-20T02:52:12.873Z,27.58
2023-08-20T02:54:39.186Z,27.46
2023-08-20T02:57:05.559Z,27.59
2023-08-20T02:59:32.276Z,27.52
2023-08-20T03:01:58.632Z,27.33
2023-08-20T03:04:25.049Z,27.29
2023-08-20T03:06:51.375Z,27.15
2023-08-20T03:09:17.675Z,27.33
2023-08-20T03:11:44.172Z,27.23
2023-08-20T03:14:12.828Z,27.31
2023-08-20T03:16:39.190Z,27.33
2023-08-20T03:19:05.485Z,27.17
2023-08-20T03:21:32.012Z,27.24
2023-08-20T03:23:58.329Z,27.30
2023-08-20T03:26:24.648Z,27.35
2023-08-20T03:28:51.268Z,27.27
2023-08-20T03:31:17.732Z,27.00
2023-08-20T03:33:44.070Z,27.24
2023-08-20T03:36:10.383Z,27.30
2023-08-20T03:38:36.908Z,27.12
2023-08-20T03:41:03.347Z,27.29
2023-08-20T03:43:29.649Z,27.21
2023-08-20T03:45:55.926Z,27.24
2023-08-20T03:48:22.430Z,27.13
2023-08-20T03:50:48.801Z,27.05
2023-08-20T03:53:15.232Z,27.07
2023-08-20T03:55:41.718Z,27.13
2023-08-20T03:58:08.062Z,27.23
2023-08-20T04:00:34.405Z,27.10
2023-08-20T04:03:00.906Z,27.12
2023-08-20T04:05:27.368Z,26.99
2023-08-20T04:07:53.849Z,27.21
2023-08-20T04:10:20.305Z,27.00
2023-08-20T04:12:46.784Z,27.13
2023-08-20T04:15:15.490Z,27.24
2023-08-20T04:17:41.851Z,27.17
2023-08-20T04:20:08.262Z,26.81
2023-08-20T04:22:34.651Z,27.05
2023-08-20T04:25:03.470Z,26.78
2023-08-20T04:27:31.522Z,26.96
2023-08-20T04:29:57.997Z,26.80
2023-08-20T04:32:24.360Z,26.94
2023-08-20T04:34:50.924Z,27.11
2023-08-20T04:37:17.390Z,26.92
2023-08-20T04:39:43.904Z,27.03
2023-08-20T04:42:10.194Z,26.86
2023-08-20T04:44:36.612Z,26.79
2023-08-20T04:47:02.943Z,26.67
2023-08-20T04:49:29.214Z,26.81
2023-08-20T04:51:55.782Z,26.86
2023-08-20T04:54:22.456Z,26.63
2023-08-20T04:56:48.727Z,26.72
2023-08-20T04:59:15.196Z,26.82
2023-08-20T05:01:41.678Z,26.93
2023-08-20T05:04:08.035Z,26.91
2023-08-20T05:06:34.618Z,26.88
2023-08-20T05:09:00.915Z,27.01
2023-08-20T05:11:27.237Z,26.87
2023-08-20T05:13:53.797Z,26.67
2023-08-20T05:16:20.169Z,26.63
2023-08-20T05:18:46.727Z,26.76
2023-08-20T05:21:13.036Z,26.95
2023-08-20T05:23:39.383Z,26.79
2023-08-20T05:26:05.902Z,26.91
2023-08-20T05:28:32.219Z,26.81
2023-08-20T05:30:58.638Z,26.86
2023-08-20T05:33:25.083Z,26.75
2023-08-20T05:35:51.559Z,26.79
2023-08-20T05:38:18.051Z,26.84
2023-08-20T05:40:44.525Z,26.87
2023-08-20T05:43:10.850Z,26.92
2023-08-20T05:45:37.202Z,26.75
2023-08-20T05:48:03.604Z,26.80
2023-08-20T05:50:30.044Z,26.76
2023-08-20T05:52:56.363Z,26.70
2023-08-20T05:55:22.930Z,26.74
2023-08-20T05:57:49.279Z,26.80
2023-08-20T06:00:15.587Z,26.82
2023-08-20T06:02:42.037Z,26.98
2023-08-20T06:05:08.381Z,26.92
2023-08-20T06:07:34.692Z,26.74
2023-08-20T06:10:01.055Z,26.88
2023-08-20T06:12:27.518Z,26.80
2023-08-20T06:14:53.971Z,26.47
2023-08-20T06:17:20.295Z,26.74
2023-08-20T06:19:46.610Z,26.63
2023-08-20T06:22:12.983Z,26.83
2023-08-20T06:24:39.451Z,26.85
2023-08-20T06:27:05.812Z,26.83
2023-08-20T06:29:32.290Z,26.77
2023-08-20T06:31:58.611Z,26.88
2023-08-20T06:34:24.953Z,26.71
2023-08-20T06:36:51.436Z,26.91
2023-08-20T06:39:17.749Z,26.99
2023-08-20T06:41:44.163Z,26.96
2023-08-20T06:44:10.449Z,26.80
2023-08-20T06:46:36.743Z,26.78
2023-08-20T06:49:03.178Z,26.85
2023-08-20T06:51:29.502Z,26.72
2023-08-20T06:53:56.053Z,26.87
2023-08-20T06:56:22.537Z,26.84
2023-08-20T06:58:48.874Z,26.91
2023-08-20T07:01:15.190Z,26.93
2023-08-20T07:03:41.500Z,26.87
2023-08-20T07:06:07.919Z,26.87
2023-08-20T07:08:34.390Z,26.87
2023-08-20T07:11:00.704Z,26.71
2023-08-20T07:13:27.048Z,26.82
2023-08-20T07:15:53.592Z,26.67
2023-08-20T07:18:20.191Z,26.86
2023-08-20T07:20:46.598Z,26.69
2023-08-20T07:23:12.996Z,26.61
2023-08-20T07:25:39.280Z,26.72
2023-08-20T07:28:05.717Z,26.78
2023-08-20T07:30:32.048Z,26.85
2023-08-20T07:32:58.497Z,26.84
2023-08-20T07:35:31.241Z,26.64
2023-08-20T07:37:58.190Z,26.85
2023-08-20T07:40:24.702Z,26.87
2023-08-20T07:42:50.976Z,26.81
2023-08-20T07:45:17.392Z,26.71
2023-08-20T07:47:43.942Z,26.72
2023-08-20T07:50:10.291Z,26.86
2023-08-20T07:52:36.853Z,26.83
2023-08-20T07:55:03.286Z,26.79
2023-08-20T07:57:29.577Z,26.81
2023-08-20T07:59:55.987Z,26.77
2023-08-20T08:02:22.320Z,26.72
2023-08-20T08:04:48.732Z,26.64
2023-08-20T08:07:15.192Z,26.33
2023-08-20T08:09:41.640Z,26.28
2023-08-20T08:12:08.022Z,26.24
2023-08-20T08:14:34.328Z,26.40
2023-08-20T08:17:00.657Z,26.40
2023-08-20T08:19:28.179Z,26.52
2023-08-20T08:21:54.534Z,26.43
2023-08-20T08:24:20.839Z,26.50
2023-08-20T08:26:47.293Z,26.51
2023-08-20T08:29:13.713Z,26.50
2023-08-20T08:31:40.068Z,26.56
2023-08-20T08:34:06.524Z,26.68
2023-08-20T08:36:33.132Z,26.73
2023-08-20T08:38:59.444Z,26.79
2023-08-20T08:41:25.838Z,26.81
2023-08-20T08:43:52.161Z,26.73
2023-08-20T08:46:18.577Z,26.79
2023-08-20T08:48:45.026Z,26.80
2023-08-20T08:51:11.344Z,26.78
2023-08-20T08:53:37.683Z,26.77
2023-08-20T08:56:03.993Z,26.78
2023-08-20T08:58:30.284Z,26.77
2023-08-20T09:00:56.716Z,26.79
2023-08-20T09:03:23.150Z,26.85
2023-08-20T09:05:49.518Z,26.91
2023-08-20T09:08:15.815Z,26.95
2023-08-20T09:10:42.320Z,26.98
2023-08-20T09:13:08.771Z,27.00
2023-08-20T09:15:35.053Z,27.01
2023-08-20T09:18:01.416Z,27.02
2023-08-20T09:20:27.982Z,27.07
2023-08-20T09:22:54.429Z,27.10
2023-08-20T09:25:20.741Z,27.06
2023-08-20T09:27:47.066Z,27.06
2023-08-20T09:30:13.572Z,27.04
2023-08-20T09:32:39.900Z,27.08
2023-08-20T09:35:06.273Z,27.09
2023-08-20T09:37:32.751Z,27.11
2023-08-20T09:39:59.294Z,27.13
2023-08-20T09:42:25.699Z,27.15
2023-08-20T09:44:52.275Z,27.18
2023-08-20T09:47:18.648Z,27.23
2023-08-20T09:49:45.124Z,27.29
2023-08-20T09:52:11.462Z,27.31
2023-08-20T09:54:37.855Z,27.32
2023-08-20T09:57:04.333Z,27.35
2023-08-20T09:59:30.617Z,27.39
2023-08-20T10:01:57.016Z,27.39
2023-08-20T10:04:23.520Z,27.40
2023-08-20T10:06:49.878Z,27.49
2023-08-20T10:09:16.181Z,27.57
2023-08-20T10:11:42.702Z,27.59
2023-08-20T10:14:09.092Z,27.66
2023-08-20T10:16:35.718Z,27.73
2023-08-20T10:19:02.081Z,27.77
2023-08-20T10:21:28.563Z,27.76
2023-08-20T10:23:55.033Z,27.79
2023-08-20T10:26:21.427Z,27.90
2023-08-20T10:28:47.727Z,27.98
2023-08-20T10:31:14.274Z,28.06
2023-08-20T10:33:40.594Z,28.13
2023-08-20T10:36:06.944Z,28.16
2023-08-20T10:38:33.241Z,28.22
2023-08-20T10:40:59.622Z,28.27
2023-08-20T10:43:26.099Z,28.33
2023-08-20T10:45:52.444Z,28.34
2023-08-20T10:48:19.020Z,28.36
2023-08-20T10:50:45.291Z,28.39
2023-08-20T10:53:11.628Z,28.45
2023-08-20T10:55:37.970Z,28.48
2023-08-20T10:58:04.233Z,28.53
2023-08-20T11:00:30.531Z,28.54
2023-08-20T11:02:56.982Z,28.57
2023-08-20T11:05:23.384Z,28.60
2023-08-20T11:07:49.879Z,28.68
2023-08-20T11:10:16.179Z,28.73
2023-08-20T11:12:42.560Z,28.72
2023-08-20T11:15:08.983Z,28.76
2023-08-20T11:17:35.807Z,28.80
2023-08-20T11:20:08.304Z,28.84
2023-08-20T11:22:35.569Z,28.93
2023-08-20T11:25:01.873Z,29.08
2023-08-20T11:27:28.163Z,29.21
2023-08-20T11:29:54.434Z,29.25
2023-08-20T11:32:20.750Z,29.28
2023-08-20T11:34:47.028Z,29.30
2023-08-20T11:37:13.480Z,29.38
2023-08-20T11:39:39.943Z,29.53
2023-08-20T11:42:07.723Z,29.65
2023-08-20T11:44:34.123Z,29.78
2023-08-20T11:47:00.388Z,29.85
2023-08-20T11:49:26.852Z,29.95
2023-08-20T11:51:53.303Z,30.02
2023-08-20T11:54:19.774Z,30.05
2023-08-20T11:56:46.252Z,30.08
2023-08-20T11:59:12.578Z,30.14
2023-08-20T12:01:38.921Z,30.20
2023-08-20T12:04:05.543Z,30.24
2023-08-20T12:06:32.153Z,30.26
2023-08-20T12:08:58.502Z,30.31
2023-08-20T12:11:24.810Z,30.42
2023-08-20T12:13:51.152Z,30.53
2023-08-20T12:16:18.649Z,30.59
2023-08-20T12:18:44.963Z,30.63
2023-08-20T12:21:11.279Z,30.76
2023-08-20T12:23:37.693Z,30.92
2023-08-20T12:26:04.191Z,31.11
2023-08-20T12:28:30.457Z,31.29
2023-08-20T12:30:56.859Z,31.40
2023-08-20T12:33:23.372Z,31.40
2023-08-20T12:35:50.986Z,31.40
2023-08-20T12:38:18.978Z,31.39
2023-08-20T12:40:45.260Z,31.41
2023-08-20T12:43:11.529Z,31.44
2023-08-20T12:45:37.898Z,31.50
2023-08-20T12:48:04.434Z,31.56
2023-08-20T12:50:30.737Z,31.61
2023-08-20T12:52:57.158Z,31.70
2023-08-20T12:55:23.555Z,31.76
2023-08-20T12:57:50.084Z,31.86
2023-08-20T13:00:16.371Z,31.91
2023-08-20T13:02:42.731Z,31.95
2023-08-20T13:05:09.069Z,32.03
2023-08-20T13:07:35.631Z,32.13
2023-08-20T13:10:02.164Z,32.25
2023-08-20T13:12:31.382Z,32.27
2023-08-20T13:14:57.834Z,32.32
2023-08-20T13:17:24.300Z,32.17
2023-08-20T13:19:50.648Z,32.01
2023-08-20T13:22:17.195Z,31.90
2023-08-20T13:24:43.751Z,31.85
2023-08-20T13:27:10.222Z,31.85
2023-08-20T13:29:36.702Z,31.86
2023-08-20T13:32:03.183Z,31.89
2023-08-20T13:34:29.651Z,31.90
2023-08-20T13:36:58.569Z,31.95
2023-08-20T13:39:25.096Z,32.00
2023-08-20T13:41:51.398Z,32.04
2023-08-20T13:44:17.750Z,32.07
2023-08-20T13:46:44.204Z,32.11
2023-08-20T13:49:13.659Z,32.12
2023-08-20T13:51:40.104Z,32.16
2023-08-20T13:54:06.618Z,32.21
2023-08-20T13:56:33.037Z,32.27
2023-08-20T13:58:59.508Z,32.28
2023-08-20T14:01:25.885Z,32.36
2023-08-20T14:03:52.180Z,32.40
2023-08-20T14:06:18.686Z,32.46
2023-08-20T14:08:45.172Z,32.47
2023-08-20T14:11:11.452Z,32.54
2023-08-20T14:13:37.899Z,32.59
2023-08-20T14:16:04.413Z,32.62
2023-08-20T14:18:30.801Z,32.74
2023-08-20T14:20:57.350Z,32.74
2023-08-20T14:23:23.754Z,32.76
2023-08-20T14:25:50.306Z,32.82
2023-08-20T14:28:16.711Z,32.80
2023-08-20T14:30:43.010Z,32.90
2023-08-20T14:33:12.152Z,32.98
2023-08-20T14:35:38.623Z,32.98
2023-08-20T14:38:05.119Z,33.02
2023-08-20T14:40:31.384Z,33.04
2023-08-20T14:42:57.821Z,33.08
2023-08-20T14:45:24.713Z,33.12
2023-08-20T14:47:51.085Z,33.17
2023-08-20T14:50:17.444Z,33.17
2023-08-20T14:52:43.949Z,33.26
2023-08-20T14:55:10.356Z,33.30
2023-08-20T14:57:45.655Z,33.33
2023-08-20T15:00:17.587Z,33.44
2023-08-20T15:02:44.311Z,33.53
2023-08-20T15:05:10.758Z,33.54
2023-08-20T15:07:37.579Z,33.55
2023-08-20T15:10:04.530Z,33.54
2023-08-20T15:12:30.983Z,33.59
2023-08-20T15:14:57.463Z,33.67
2023-08-20T15:17:26.168Z,33.69
2023-08-20T15:19:52.511Z,33.72
2023-08-20T15:22:18.804Z,33.78
2023-08-20T15:24:45.104Z,33.75
2023-08-20T15:27:11.427Z,33.79
2023-08-20T15:29:37.796Z,33.85
2023-08-20T15:32:04.489Z,33.92
2023-08-20T15:34:30.754Z,33.97
2023-08-20T15:36:57.214Z,33.95
2023-08-20T15:39:23.708Z,33.92
2023-08-20T15:41:50.032Z,34.06
2023-08-20T15:44:16.347Z,33.99
2023-08-20T15:46:42.615Z,34.01
2023-08-20T15:49:09.043Z,34.04
2023-08-20T15:51:35.565Z,34.00
2023-08-20T15:54:01.916Z,34.07
2023-08-20T15:56:28.282Z,34.04
2023-08-20T15:58:54.690Z,34.10
2023-08-20T16:01:21.001Z,33.85
2023-08-20T16:03:47.562Z,34.17
2023-08-20T16:06:14.123Z,34.19
2023-08-20T16:08:43.086Z,34.22
2023-08-20T16:11:09.417Z,34.13
2023-08-20T16:13:35.790Z,34.18
2023-08-20T16:16:02.114Z,34.23
2023-08-20T16:18:28.508Z,34.13
2023-08-20T16:20:54.786Z,34.20
2023-08-20T16:23:21.119Z,34.10
2023-08-20T16:25:50.624Z,34.08
2023-08-20T16:28:17.054Z,34.09
2023-08-20T16:30:43.534Z,34.12
2023-08-20T16:33:09.885Z,34.11
2023-08-20T16:35:37.468Z,34.14
2023-08-20T16:38:03.749Z,34.08
2023-08-20T16:40:30.024Z,34.14
2023-08-20T16:42:56.405Z,34.19
2023-08-20T16:45:22.740Z,34.21
2023-08-20T16:47:49.072Z,34.19
2023-08-20T16:50:15.369Z,34.18
2023-08-20T16:52:41.678Z,34.15
2023-08-20T16:55:08.202Z,34.15
2023-08-20T16:57:34.796Z,34.16
2023-08-20T17:00:01.499Z,34.19
2023-08-20T17:02:30.879Z,34.19
2023-08-20T17:04:57.217Z,34.13
2023-08-20T17:07:23.568Z,34.08
2023-08-20T17:09:50.078Z,34.13
2023-08-20T17:12:17.048Z,34.15
2023-08-20T17:14:43.764Z,34.12
2023-08-20T17:17:10.762Z,34.15
2023-08-20T17:19:37.100Z,34.11
2023-08-20T17:22:03.411Z,34.05
2023-08-20T17:24:29.953Z,34.09
2023-08-20T17:26:56.263Z,34.08
2023-08-20T17:29:22.576Z,34.05
2023-08-20T17:31:49.066Z,34.01
2023-08-20T17:34:15.561Z,34.04
2023-08-20T17:36:41.839Z,33.98
2023-08-20T17:39:08.143Z,33.99
2023-08-20T17:41:34.817Z,33.93
2023-08-20T17:44:01.105Z,33.91
2023-08-20T17:46:27.728Z,33.88
2023-08-20T17:48:54.200Z,33.83
2023-08-20T17:51:20.506Z,33.83
2023-08-20T17:53:46.895Z,33.79
2023-08-20T17:56:13.213Z,33.76
2023-08-20T17:58:39.606Z,33.71
2023-08-20T18:01:06.164Z,33.73
2023-08-20T18:03:32.701Z,33.78
2023-08-20T18:05:59.375Z,33.87
2023-08-20T18:08:25.747Z,33.93
2023-08-20T18:10:52.032Z,33.88
2023-08-20T18:13:18.404Z,33.90
2023-08-20T18:15:44.889Z,33.76
2023-08-20T18:18:11.241Z,33.71
2023-08-20T18:20:37.561Z,33.65
2023-08-20T18:23:05.355Z,33.55
2023-08-20T18:25:32.140Z,33.40
2023-08-20T18:27:58.458Z,33.23
2023-08-20T18:30:25.045Z,33.15
2023-08-20T18:32:51.519Z,33.02
2023-08-20T18:35:17.971Z,32.85
2023-08-20T18:37:44.391Z,32.67
2023-08-20T18:40:10.712Z,32.52
2023-08-20T18:42:37.126Z,32.38
2023-08-20T18:45:03.602Z,32.35
2023-08-20T18:47:29.908Z,32.32
2023-08-20T18:49:56.254Z,32.21
2023-08-20T18:52:22.520Z,32.16
2023-08-20T18:54:49.010Z,31.99
2023-08-20T18:57:15.331Z,31.86
2023-08-20T18:59:41.645Z,31.76
2023-08-20T19:02:08.010Z,31.65
2023-08-20T19:04:34.373Z,31.61
2023-08-20T19:07:00.694Z,31.47
2023-08-20T19:09:26.998Z,31.32
2023-08-20T19:11:53.271Z,31.29
2023-08-20T19:14:19.544Z,31.28
2023-08-20T19:16:45.880Z,31.17
2023-08-20T19:19:12.209Z,31.06
2023-08-20T19:21:38.548Z,31.03
2023-08-20T19:24:05.060Z,30.93
2023-08-20T19:26:31.360Z,30.87
2023-08-20T19:28:57.943Z,30.82
2023-08-20T19:31:24.436Z,30.72
2023-08-20T19:33:51.239Z,30.67
2023-08-20T19:36:17.547Z,30.56
2023-08-20T19:38:43.858Z,30.54
2023-08-20T19:41:10.239Z,30.57
2023-08-20T19:43:39.672Z,30.50
2023-08-20T19:46:06.252Z,30.43
2023-08-20T19:48:32.629Z,30.61
2023-08-20T19:50:58.926Z,30.47
2023-08-20T19:53:25.194Z,30.33
2023-08-20T19:55:51.569Z,30.47
2023-08-20T19:58:17.896Z,30.28
2023-08-20T20:00:44.201Z,30.18
2023-08-20T20:03:13.362Z,30.12
2023-08-20T20:05:40.291Z,30.19
2023-08-20T20:08:06.672Z,30.03
2023-08-20T20:10:35.815Z,30.01
2023-08-20T20:13:02.813Z,29.84
2023-08-20T20:15:29.309Z,29.92
2023-08-20T20:17:55.703Z,29.79
2023-08-20T20:20:22.212Z,29.99
2023-08-20T20:22:48.770Z,29.75
2023-08-20T20:25:15.035Z,29.67
2023-08-20T20:27:41.396Z,29.54
2023-08-20T20:30:07.745Z,29.73
2023-08-20T20:32:34.072Z,29.56
2023-08-20T20:35:00.569Z,29.53
2023-08-20T20:37:26.894Z,29.50
2023-08-20T20:39:53.295Z,29.62
2023-08-20T20:42:19.774Z,29.45
2023-08-20T20:44:46.099Z,29.37
2023-08-20T20:47:12.433Z,29.38
2023-08-20T20:49:38.704Z,29.36
2023-08-20T20:52:04.968Z,29.26
2023-08-20T20:54:31.380Z,29.24
2023-08-20T20:56:57.918Z,29.23
2023-08-20T20:59:24.357Z,29.34
2023-08-20T21:01:50.702Z,29.44
2023-08-20T21:04:19.974Z,29.16
2023-08-20T21:06:46.270Z,29.25
2023-08-20T21:09:12.572Z,29.15
2023-08-20T21:11:38.920Z,29.25
2023-08-20T21:14:05.264Z,29.12
2023-08-20T21:16:31.667Z,29.15
2023-08-20T21:18:58.044Z,29.25
2023-08-20T21:21:24.319Z,29.11
2023-08-20T21:23:50.834Z,29.10
2023-08-20T21:26:17.296Z,29.33
2023-08-20T21:28:43.783Z,29.29
2023-08-20T21:31:10.266Z,29.27
2023-08-20T21:33:36.616Z,29.07
2023-08-20T21:36:02.924Z,29.18
2023-08-20T21:38:29.446Z,29.11
2023-08-20T21:40:55.763Z,29.17
2023-08-20T21:43:22.101Z,29.17
2023-08-20T21:45:48.640Z,28.97
2023-08-20T21:48:14.979Z,28.98
2023-08-20T21:50:41.554Z,29.07
2023-08-20T21:53:07.959Z,29.08
2023-08-20T21:55:34.530Z,29.07
2023-08-20T21:58:00.970Z,29.16
2023-08-20T22:00:27.483Z,28.93
2023-08-20T22:02:54.418Z,28.89
2023-08-20T22:05:21.122Z,28.92
2023-08-20T22:07:47.402Z,28.92
2023-08-20T22:10:13.783Z,28.76
2023-08-20T22:12:40.281Z,28.74
2023-08-20T22:15:06.602Z,28.62
2023-08-20T22:17:32.979Z,28.67
2023-08-20T22:19:59.492Z,28.67
2023-08-20T22:22:25.817Z,28.73
2023-08-20T22:24:52.113Z,28.72
2023-08-20T22:27:18.631Z,28.44
2023-08-20T22:29:44.923Z,28.52
2023-08-20T22:32:11.224Z,28.38
2023-08-20T22:34:37.590Z,28.32
2023-08-20T22:37:03.947Z,28.24
2023-08-20T22:39:30.253Z,28.27
2023-08-20T22:41:56.526Z,28.32
2023-08-20T22:44:22.836Z,28.12
2023-08-20T22:46:49.241Z,28.06
2023-08-20T22:49:15.623Z,28.06
2023-08-20T22:51:42.151Z,28.15
2023-08-20T22:54:08.638Z,27.96
2023-08-20T22:56:35.058Z,28.02
2023-08-20T22:59:01.632Z,28.06
2023-08-20T23:01:27.994Z,27.89
2023-08-20T23:03:54.599Z,27.89
2023-08-20T23:06:21.021Z,28.14
2023-08-20T23:08:47.627Z,28.09
2023-08-20T23:11:13.969Z,27.76
2023-08-20T23:13:40.457Z,27.98
2023-08-20T23:16:06.723Z,27.84
2023-08-20T23:18:33.140Z,27.90
2023-08-20T23:20:59.649Z,27.86
2023-08-20T23:23:25.926Z,27.89
2023-08-20T23:25:52.234Z,27.82
2023-08-20T23:28:18.530Z,27.69
2023-08-20T23:30:45.054Z,27.77
2023-08-20T23:33:11.438Z,27.89
2023-08-20T23:35:37.940Z,27.63
2023-08-20T23:38:04.448Z,27.64
2023-08-20T23:40:30.937Z,27.74
2023-08-20T23:42:57.396Z,27.95
2023-08-20T23:45:23.772Z,27.70
2023-08-20T23:47:50.362Z,27.81
2023-08-20T23:50:16.699Z,27.76
2023-08-20T23:52:43.047Z,28.02
2023-08-20T23:55:09.396Z,27.70
2023-08-20T23:57:35.663Z,27.43
